createdAt,value
2017-10-13T00:08:59.239Z,-62
2017-10-13T00:21:02.760Z,-60
2017-10-13T00:33:06.449Z,-60
2017-10-13T00:45:10.065Z,-62
2017-10-13T00:57:14.623Z,-62
2017-10-13T01:09:18.171Z,-62
2017-10-13T01:21:21.756Z,-62
2017-10-13T01:33:25.407Z,-62
2017-10-13T01:45:28.793Z,-62
2017-10-13T01:57:32.247Z,-62
2017-10-13T02:09:35.861Z,-62
2017-10-13T02:21:40.684Z,-62
2017-10-13T02:33:44.384Z,-62
2017-10-13T02:45:47.886Z,-62
2017-10-13T02:57:51.445Z,-62
2017-10-13T03:09:54.845Z,-62
2017-10-13T03:21:58.285Z,-62
2017-10-13T03:34:02.080Z,-62
2017-10-13T03:46:05.544Z,-62
2017-10-13T03:58:08.968Z,-62
2017-10-13T04:10:12.584Z,-62
2017-10-13T04:22:16.149Z,-62
2017-10-13T04:34:21.028Z,-60
2017-10-13T04:46:24.588Z,-62
2017-10-13T04:58:28.109Z,-62
2017-10-13T05:10:31.859Z,-62
2017-10-13T05:22:35.481Z,-62
2017-10-13T05:34:37.334Z,-62
2017-10-13T05:46:41.032Z,-60
2017-10-13T05:58:44.931Z,-60
2017-10-13T06:10:44.849Z,-62
2017-10-13T06:22:50.047Z,-60
2017-10-13T06:34:53.857Z,-62
2017-10-13T06:46:58.261Z,-64
2017-10-13T06:58:58.520Z,-62
2017-10-13T07:11:01.628Z,-62
2017-10-13T07:23:05.326Z,-62
2017-10-13T07:35:09.868Z,-76
2017-10-13T07:47:14.945Z,-74
2017-10-13T07:59:18.009Z,-76
2017-10-13T08:11:23.570Z,-78
2017-10-13T08:23:23.913Z,-74
2017-10-13T08:35:25.753Z,-76
2017-10-13T08:47:31.088Z,-78
2017-10-13T08:59:37.475Z,-78
2017-10-13T09:11:46.430Z,-82
2017-10-13T09:35:50.421Z,-66
2017-10-13T09:47:55.324Z,-66
2017-10-13T10:11:55.084Z,-66
2017-10-13T10:23:55.382Z,-66
2017-10-13T10:35:59.481Z,-66
2017-10-13T10:48:03.217Z,-66
2017-10-13T11:00:06.445Z,-66
2017-10-13T11:12:12.210Z,-66
2017-10-13T11:24:16.665Z,-66
2017-10-13T11:36:21.222Z,-66
2017-10-13T11:48:19.325Z,-66
2017-10-13T12:00:19.845Z,-66
2017-10-13T12:12:19.805Z,-64
2017-10-13T12:24:19.928Z,-66
2017-10-13T12:36:20.031Z,-66
2017-10-13T12:48:18.031Z,-66
2017-10-13T13:00:18.886Z,-66
2017-10-13T13:12:19.075Z,-68
2017-10-13T13:24:19.321Z,-68
2017-10-13T13:36:19.330Z,-68
2017-10-13T13:48:20.084Z,-68
2017-10-13T14:00:20.427Z,-68
2017-10-13T14:12:21.270Z,-68
2017-10-13T14:24:22.053Z,-68
2017-10-13T14:36:22.706Z,-66
2017-10-13T14:48:22.944Z,-70
2017-10-13T15:00:23.392Z,-68
2017-10-13T15:12:23.592Z,-70
2017-10-13T15:24:23.888Z,-68
2017-10-13T15:36:24.012Z,-68
2017-10-13T15:48:24.153Z,-68
2017-10-13T16:00:24.288Z,-68
2017-10-13T16:12:24.148Z,-68
2017-10-13T16:24:29.568Z,-68
2017-10-13T16:36:29.228Z,-68
2017-10-13T16:48:28.969Z,-68
2017-10-13T17:00:28.971Z,-68
2017-10-13T17:12:28.593Z,-66
2017-10-13T17:24:28.494Z,-66
2017-10-13T17:36:28.060Z,-68
2017-10-13T17:48:27.264Z,-68
2017-10-13T18:00:27.470Z,-68
2017-10-13T18:12:27.329Z,-68
2017-10-13T18:24:26.992Z,-68
2017-10-13T18:36:25.953Z,-74
2017-10-13T18:48:25.486Z,-74
2017-10-13T20:00:18.727Z,-74
2017-10-13T20:24:16.911Z,-70
2017-10-13T21:24:03.858Z,-72
2017-10-13T21:47:58.229Z,-74
2017-10-13T21:59:56.809Z,-72
2017-10-13T22:35:43.452Z,-72
